sensor_id;sensor_type;location;lat;lon;timestamp;temperature;humidity
60717;DHT22;46566;52.700;6.192;2022-07-23T00:01:19;15.80;99.90
60717;DHT22;46566;52.700;6.192;2022-07-23T00:03:45;15.80;99.90
60717;DHT22;46566;52.700;6.192;2022-07-23T00:06:11;15.80;99.90
60717;DHT22;46566;52.700;6.192;2022-07-23T00:08:36;15.70;99.90
60717;DHT22;46566;52.700;6.192;2022-07-23T00:11:02;15.70;99.90
60717;DHT22;46566;52.700;6.192;2022-07-23T00:13:28;15.70;99.90
60717;DHT22;46566;52.700;6.192;2022-07-23T00:15:54;15.60;99.90
60717;DHT22;46566;52.700;6.192;2022-07-23T00:18:20;15.60;99.90
60717;DHT22;46566;52.700;6.192;2022-07-23T00:20:47;15.60;99.90
60717;DHT22;46566;52.700;6.192;2022-07-23T00:23:12;15.60;99.90
60717;DHT22;46566;52.700;6.192;2022-07-23T00:25:38;15.50;99.90
60717;DHT22;46566;52.700;6.192;2022-07-23T00:28:04;15.50;99.90
60717;DHT22;46566;52.700;6.192;2022-07-23T00:30:31;15.50;99.90
60717;DHT22;46566;52.700;6.192;2022-07-23T00:33:02;15.40;99.90
60717;DHT22;46566;52.700;6.192;2022-07-23T00:35:32;15.40;99.90
60717;DHT22;46566;52.700;6.192;2022-07-23T00:37:59;15.40;99.90
60717;DHT22;46566;52.700;6.192;2022-07-23T00:40:26;15.30;99.90
60717;DHT22;46566;52.700;6.192;2022-07-23T00:42:52;15.30;99.90
60717;DHT22;46566;52.700;6.192;2022-07-23T00:45:18;15.30;99.90
60717;DHT22;46566;52.700;6.192;2022-07-23T00:47:44;15.30;99.90
60717;DHT22;46566;52.700;6.192;2022-07-23T00:50:10;15.30;99.90
60717;DHT22;46566;52.700;6.192;2022-07-23T00:52:38;15.30;99.90
60717;DHT22;46566;52.700;6.192;2022-07-23T00:55:06;15.30;99.90
60717;DHT22;46566;52.700;6.192;2022-07-23T00:57:32;15.30;99.90
60717;DHT22;46566;52.700;6.192;2022-07-23T00:59:59;15.30;99.90
60717;DHT22;46566;52.700;6.192;2022-07-23T01:02:25;15.20;99.90
60717;DHT22;46566;52.700;6.192;2022-07-23T01:04:51;15.20;99.90
60717;DHT22;46566;52.700;6.192;2022-07-23T01:07:18;15.20;99.90
60717;DHT22;46566;52.700;6.192;2022-07-23T01:09:45;15.20;99.90
60717;DHT22;46566;52.700;6.192;2022-07-23T01:12:11;15.20;99.90
60717;DHT22;46566;52.700;6.192;2022-07-23T01:14:37;15.20;99.90
60717;DHT22;46566;52.700;6.192;2022-07-23T01:17:03;15.10;99.90
60717;DHT22;46566;52.700;6.192;2022-07-23T01:19:29;15.10;99.90
60717;DHT22;46566;52.700;6.192;2022-07-23T01:21:57;15.10;99.90
60717;DHT22;46566;52.700;6.192;2022-07-23T01:24:24;15.10;99.90
60717;DHT22;46566;52.700;6.192;2022-07-23T01:26:57;15.00;99.90
60717;DHT22;46566;52.700;6.192;2022-07-23T01:29:23;15.00;99.90
60717;DHT22;46566;52.700;6.192;2022-07-23T01:31:49;14.90;99.90
60717;DHT22;46566;52.700;6.192;2022-07-23T01:34:15;14.90;99.90
60717;DHT22;46566;52.700;6.192;2022-07-23T01:36:41;14.80;99.90
60717;DHT22;46566;52.700;6.192;2022-07-23T01:39:08;14.80;99.90
60717;DHT22;46566;52.700;6.192;2022-07-23T01:41:34;14.80;99.90
60717;DHT22;46566;52.700;6.192;2022-07-23T01:44:00;14.70;99.90
60717;DHT22;46566;52.700;6.192;2022-07-23T01:46:26;14.70;99.90
60717;DHT22;46566;52.700;6.192;2022-07-23T01:48:52;14.70;99.90
60717;DHT22;46566;52.700;6.192;2022-07-23T01:51:47;14.70;99.90
60717;DHT22;46566;52.700;6.192;2022-07-23T01:54:28;14.70;99.90
60717;DHT22;46566;52.700;6.192;2022-07-23T01:56:54;14.70;99.90
60717;DHT22;46566;52.700;6.192;2022-07-23T01:59:20;14.60;99.90
60717;DHT22;46566;52.700;6.192;2022-07-23T02:01:45;14.60;99.90
60717;DHT22;46566;52.700;6.192;2022-07-23T02:04:12;14.60;99.90
60717;DHT22;46566;52.700;6.192;2022-07-23T02:06:37;14.60;99.90
60717;DHT22;46566;52.700;6.192;2022-07-23T02:09:05;14.60;99.90
60717;DHT22;46566;52.700;6.192;2022-07-23T02:11:31;14.60;99.90
60717;DHT22;46566;52.700;6.192;2022-07-23T02:13:57;14.70;99.90
60717;DHT22;46566;52.700;6.192;2022-07-23T02:16:23;14.70;99.90
60717;DHT22;46566;52.700;6.192;2022-07-23T02:18:48;14.70;99.90
60717;DHT22;46566;52.700;6.192;2022-07-23T02:21:14;14.70;99.90
60717;DHT22;46566;52.700;6.192;2022-07-23T02:23:40;14.70;99.90
60717;DHT22;46566;52.700;6.192;2022-07-23T02:26:06;14.70;99.90
60717;DHT22;46566;52.700;6.192;2022-07-23T02:28:32;14.70;99.90
60717;DHT22;46566;52.700;6.192;2022-07-23T02:30:58;14.60;99.90
60717;DHT22;46566;52.700;6.192;2022-07-23T02:33:24;14.60;99.90
60717;DHT22;46566;52.700;6.192;2022-07-23T02:35:50;14.60;99.90
60717;DHT22;46566;52.700;6.192;2022-07-23T02:38:17;14.60;99.90
60717;DHT22;46566;52.700;6.192;2022-07-23T02:40:44;14.50;99.90
60717;DHT22;46566;52.700;6.192;2022-07-23T02:43:10;14.50;99.90
60717;DHT22;46566;52.700;6.192;2022-07-23T02:45:38;14.50;99.90
60717;DHT22;46566;52.700;6.192;2022-07-23T02:48:04;14.50;99.90
60717;DHT22;46566;52.700;6.192;2022-07-23T02:50:30;14.40;99.90
60717;DHT22;46566;52.700;6.192;2022-07-23T02:52:57;14.40;99.90
60717;DHT22;46566;52.700;6.192;2022-07-23T02:55:24;14.40;99.90
60717;DHT22;46566;52.700;6.192;2022-07-23T02:57:50;14.40;99.90
60717;DHT22;46566;52.700;6.192;2022-07-23T03:00:17;14.40;99.90
60717;DHT22;46566;52.700;6.192;2022-07-23T03:02:42;14.30;99.90
60717;DHT22;46566;52.700;6.192;2022-07-23T03:05:08;14.30;99.90
60717;DHT22;46566;52.700;6.192;2022-07-23T03:07:34;14.30;99.90
60717;DHT22;46566;52.700;6.192;2022-07-23T03:10:01;14.30;99.90
60717;DHT22;46566;52.700;6.192;2022-07-23T03:12:27;14.30;99.90
60717;DHT22;46566;52.700;6.192;2022-07-23T03:14:52;14.20;99.90
60717;DHT22;46566;52.700;6.192;2022-07-23T03:17:18;14.30;99.90
60717;DHT22;46566;52.700;6.192;2022-07-23T03:19:44;14.20;99.90
60717;DHT22;46566;52.700;6.192;2022-07-23T03:22:10;14.20;99.90
60717;DHT22;46566;52.700;6.192;2022-07-23T03:24:36;14.20;99.90
60717;DHT22;46566;52.700;6.192;2022-07-23T03:27:28;14.20;99.90
60717;DHT22;46566;52.700;6.192;2022-07-23T03:29:57;14.20;99.90
60717;DHT22;46566;52.700;6.192;2022-07-23T03:32:23;14.10;99.90
60717;DHT22;46566;52.700;6.192;2022-07-23T03:34:50;14.10;99.90
60717;DHT22;46566;52.700;6.192;2022-07-23T03:37:17;14.10;99.90
60717;DHT22;46566;52.700;6.192;2022-07-23T03:39:44;14.10;99.90
60717;DHT22;46566;52.700;6.192;2022-07-23T03:42:10;14.00;99.90
60717;DHT22;46566;52.700;6.192;2022-07-23T03:44:36;14.00;99.90
60717;DHT22;46566;52.700;6.192;2022-07-23T03:47:05;14.00;99.90
60717;DHT22;46566;52.700;6.192;2022-07-23T03:49:32;14.00;99.90
60717;DHT22;46566;52.700;6.192;2022-07-23T03:51:58;14.00;99.90
60717;DHT22;46566;52.700;6.192;2022-07-23T03:54:24;14.00;99.90
60717;DHT22;46566;52.700;6.192;2022-07-23T03:56:50;14.00;99.90
60717;DHT22;46566;52.700;6.192;2022-07-23T03:59:16;14.00;99.90
60717;DHT22;46566;52.700;6.192;2022-07-23T04:01:42;14.00;99.90
60717;DHT22;46566;52.700;6.192;2022-07-23T04:04:08;14.00;99.90
60717;DHT22;46566;52.700;6.192;2022-07-23T04:06:36;14.00;99.90
60717;DHT22;46566;52.700;6.192;2022-07-23T04:09:02;14.00;99.90
60717;DHT22;46566;52.700;6.192;2022-07-23T04:11:30;14.00;99.90
60717;DHT22;46566;52.700;6.192;2022-07-23T04:13:55;14.00;99.90
60717;DHT22;46566;52.700;6.192;2022-07-23T04:16:21;14.00;99.90
60717;DHT22;46566;52.700;6.192;2022-07-23T04:18:47;14.00;99.90
60717;DHT22;46566;52.700;6.192;2022-07-23T04:21:16;14.00;99.90
60717;DHT22;46566;52.700;6.192;2022-07-23T04:23:44;14.00;99.90
60717;DHT22;46566;52.700;6.192;2022-07-23T04:26:10;14.00;99.90
60717;DHT22;46566;52.700;6.192;2022-07-23T04:28:36;14.00;99.90
60717;DHT22;46566;52.700;6.192;2022-07-23T04:31:03;14.00;99.90
60717;DHT22;46566;52.700;6.192;2022-07-23T04:33:30;14.00;99.90
60717;DHT22;46566;52.700;6.192;2022-07-23T04:35:58;14.00;99.90
60717;DHT22;46566;52.700;6.192;2022-07-23T04:38:24;14.00;99.90
60717;DHT22;46566;52.700;6.192;2022-07-23T04:40:53;14.00;99.90
60717;DHT22;46566;52.700;6.192;2022-07-23T04:43:19;14.10;99.90
60717;DHT22;46566;52.700;6.192;2022-07-23T04:45:48;14.00;99.90
60717;DHT22;46566;52.700;6.192;2022-07-23T04:48:14;14.10;99.90
60717;DHT22;46566;52.700;6.192;2022-07-23T04:50:40;14.10;99.90
60717;DHT22;46566;52.700;6.192;2022-07-23T04:53:14;14.10;99.90
60717;DHT22;46566;52.700;6.192;2022-07-23T04:55:41;14.10;99.90
60717;DHT22;46566;52.700;6.192;2022-07-23T04:58:06;14.10;99.90
60717;DHT22;46566;52.700;6.192;2022-07-23T05:00:33;14.20;99.90
60717;DHT22;46566;52.700;6.192;2022-07-23T05:02:58;14.20;99.90
60717;DHT22;46566;52.700;6.192;2022-07-23T05:05:24;14.20;99.90
60717;DHT22;46566;52.700;6.192;2022-07-23T05:07:53;14.20;99.90
60717;DHT22;46566;52.700;6.192;2022-07-23T05:10:19;14.20;99.90
60717;DHT22;46566;52.700;6.192;2022-07-23T05:12:45;14.20;99.90
60717;DHT22;46566;52.700;6.192;2022-07-23T05:15:10;14.30;99.90
60717;DHT22;46566;52.700;6.192;2022-07-23T05:17:36;14.30;99.90
60717;DHT22;46566;52.700;6.192;2022-07-23T05:20:08;14.30;99.90
60717;DHT22;46566;52.700;6.192;2022-07-23T05:22:34;14.30;99.90
60717;DHT22;46566;52.700;6.192;2022-07-23T05:25:07;14.30;99.90
60717;DHT22;46566;52.700;6.192;2022-07-23T05:27:33;14.40;99.90
60717;DHT22;46566;52.700;6.192;2022-07-23T05:29:59;14.40;99.90
60717;DHT22;46566;52.700;6.192;2022-07-23T05:32:25;14.40;99.90
60717;DHT22;46566;52.700;6.192;2022-07-23T05:35:01;14.40;99.90
60717;DHT22;46566;52.700;6.192;2022-07-23T05:37:27;14.50;99.90
60717;DHT22;46566;52.700;6.192;2022-07-23T05:39:53;14.50;99.90
60717;DHT22;46566;52.700;6.192;2022-07-23T05:42:19;14.50;99.90
60717;DHT22;46566;52.700;6.192;2022-07-23T05:44:44;14.60;99.90
60717;DHT22;46566;52.700;6.192;2022-07-23T05:47:11;14.60;99.90
60717;DHT22;46566;52.700;6.192;2022-07-23T05:49:37;14.60;99.90
60717;DHT22;46566;52.700;6.192;2022-07-23T05:52:23;14.60;99.90
60717;DHT22;46566;52.700;6.192;2022-07-23T05:55:09;14.70;99.90
60717;DHT22;46566;52.700;6.192;2022-07-23T05:57:35;14.70;99.90
60717;DHT22;46566;52.700;6.192;2022-07-23T06:00:03;14.70;99.90
60717;DHT22;46566;52.700;6.192;2022-07-23T06:02:39;14.80;99.90
60717;DHT22;46566;52.700;6.192;2022-07-23T06:05:07;14.80;99.90
60717;DHT22;46566;52.700;6.192;2022-07-23T06:07:34;14.80;99.90
60717;DHT22;46566;52.700;6.192;2022-07-23T06:10:03;14.90;99.90
60717;DHT22;46566;52.700;6.192;2022-07-23T06:12:29;14.90;99.90
60717;DHT22;46566;52.700;6.192;2022-07-23T06:14:56;14.90;99.90
60717;DHT22;46566;52.700;6.192;2022-07-23T06:17:22;15.00;99.90
60717;DHT22;46566;52.700;6.192;2022-07-23T06:19:48;14.90;99.90
60717;DHT22;46566;52.700;6.192;2022-07-23T06:22:15;15.00;99.90
60717;DHT22;46566;52.700;6.192;2022-07-23T06:24:41;15.00;99.90
60717;DHT22;46566;52.700;6.192;2022-07-23T06:27:07;15.10;99.90
60717;DHT22;46566;52.700;6.192;2022-07-23T06:29:34;15.10;99.90
60717;DHT22;46566;52.700;6.192;2022-07-23T06:32:00;15.10;99.90
60717;DHT22;46566;52.700;6.192;2022-07-23T06:34:26;15.20;99.90
60717;DHT22;46566;52.700;6.192;2022-07-23T06:36:51;15.20;99.90
60717;DHT22;46566;52.700;6.192;2022-07-23T06:39:17;15.30;99.90
60717;DHT22;46566;52.700;6.192;2022-07-23T06:41:47;15.30;99.90
60717;DHT22;46566;52.700;6.192;2022-07-23T06:44:12;15.30;99.90
60717;DHT22;46566;52.700;6.192;2022-07-23T06:46:40;15.40;99.90
60717;DHT22;46566;52.700;6.192;2022-07-23T06:49:06;15.50;99.90
60717;DHT22;46566;52.700;6.192;2022-07-23T06:51:32;15.50;99.90
60717;DHT22;46566;52.700;6.192;2022-07-23T06:54:00;15.60;99.90
60717;DHT22;46566;52.700;6.192;2022-07-23T06:56:26;15.60;99.90
60717;DHT22;46566;52.700;6.192;2022-07-23T06:58:53;15.70;99.90
60717;DHT22;46566;52.700;6.192;2022-07-23T07:01:19;15.70;99.90
60717;DHT22;46566;52.700;6.192;2022-07-23T07:03:45;15.80;99.90
60717;DHT22;46566;52.700;6.192;2022-07-23T07:06:11;15.80;99.90
60717;DHT22;46566;52.700;6.192;2022-07-23T07:08:37;15.90;99.90
60717;DHT22;46566;52.700;6.192;2022-07-23T07:11:03;15.90;99.90
60717;DHT22;46566;52.700;6.192;2022-07-23T07:13:28;16.00;99.90
60717;DHT22;46566;52.700;6.192;2022-07-23T07:15:54;16.00;99.90
60717;DHT22;46566;52.700;6.192;2022-07-23T07:18:21;16.10;99.90
60717;DHT22;46566;52.700;6.192;2022-07-23T07:20:48;16.20;99.90
60717;DHT22;46566;52.700;6.192;2022-07-23T07:23:14;16.20;99.90
60717;DHT22;46566;52.700;6.192;2022-07-23T07:25:40;16.30;99.90
60717;DHT22;46566;52.700;6.192;2022-07-23T07:28:06;16.40;99.90
60717;DHT22;46566;52.700;6.192;2022-07-23T07:30:32;16.50;99.90
60717;DHT22;46566;52.700;6.192;2022-07-23T07:32:58;16.60;99.90
60717;DHT22;46566;52.700;6.192;2022-07-23T07:35:24;16.70;99.90
60717;DHT22;46566;52.700;6.192;2022-07-23T07:37:50;16.80;99.90
60717;DHT22;46566;52.700;6.192;2022-07-23T07:40:16;16.90;99.90
60717;DHT22;46566;52.700;6.192;2022-07-23T07:42:49;17.10;99.90
60717;DHT22;46566;52.700;6.192;2022-07-23T07:45:16;17.30;99.90
60717;DHT22;46566;52.700;6.192;2022-07-23T07:47:42;17.40;99.90
60717;DHT22;46566;52.700;6.192;2022-07-23T07:50:08;17.50;99.90
60717;DHT22;46566;52.700;6.192;2022-07-23T07:52:35;17.60;99.90
60717;DHT22;46566;52.700;6.192;2022-07-23T07:55:04;17.80;99.90
60717;DHT22;46566;52.700;6.192;2022-07-23T07:57:30;17.90;99.90
60717;DHT22;46566;52.700;6.192;2022-07-23T07:59:56;17.90;99.90
60717;DHT22;46566;52.700;6.192;2022-07-23T08:02:22;17.90;99.90
60717;DHT22;46566;52.700;6.192;2022-07-23T08:04:48;17.90;99.90
60717;DHT22;46566;52.700;6.192;2022-07-23T08:07:15;17.90;99.90
60717;DHT22;46566;52.700;6.192;2022-07-23T08:09:41;18.00;99.90
60717;DHT22;46566;52.700;6.192;2022-07-23T08:12:07;18.10;99.90
60717;DHT22;46566;52.700;6.192;2022-07-23T08:14:33;18.20;99.90
60717;DHT22;46566;52.700;6.192;2022-07-23T08:16:59;18.30;99.90
60717;DHT22;46566;52.700;6.192;2022-07-23T08:19:25;18.50;99.90
60717;DHT22;46566;52.700;6.192;2022-07-23T08:21:51;18.90;99.90
60717;DHT22;46566;52.700;6.192;2022-07-23T08:24:17;19.00;99.90
60717;DHT22;46566;52.700;6.192;2022-07-23T08:26:43;19.00;99.90
60717;DHT22;46566;52.700;6.192;2022-07-23T08:29:09;19.00;99.90
60717;DHT22;46566;52.700;6.192;2022-07-23T08:31:35;19.00;99.90
60717;DHT22;46566;52.700;6.192;2022-07-23T08:34:01;19.10;99.90
60717;DHT22;46566;52.700;6.192;2022-07-23T08:36:28;19.20;99.90
60717;DHT22;46566;52.700;6.192;2022-07-23T08:38:58;19.40;99.90
60717;DHT22;46566;52.700;6.192;2022-07-23T08:41:25;19.50;99.90
60717;DHT22;46566;52.700;6.192;2022-07-23T08:43:51;19.80;99.90
60717;DHT22;46566;52.700;6.192;2022-07-23T08:46:19;19.80;99.90
60717;DHT22;46566;52.700;6.192;2022-07-23T08:48:48;19.80;99.90
60717;DHT22;46566;52.700;6.192;2022-07-23T08:51:14;19.80;99.90
60717;DHT22;46566;52.700;6.192;2022-07-23T08:53:41;19.90;99.90
60717;DHT22;46566;52.700;6.192;2022-07-23T08:56:07;20.80;99.90
60717;DHT22;46566;52.700;6.192;2022-07-23T09:01:29;22.50;99.90
60717;DHT22;46566;52.700;6.192;2022-07-23T09:03:55;22.50;99.90
60717;DHT22;46566;52.700;6.192;2022-07-23T09:06:40;22.00;99.90
60717;DHT22;46566;52.700;6.192;2022-07-23T09:09:19;21.90;99.90
60717;DHT22;46566;52.700;6.192;2022-07-23T09:11:46;22.70;99.90
60717;DHT22;46566;52.700;6.192;2022-07-23T09:14:12;23.60;95.20
60717;DHT22;46566;52.700;6.192;2022-07-23T09:19:47;25.40;86.10
60717;DHT22;46566;52.700;6.192;2022-07-23T09:25:24;26.40;69.40
60717;DHT22;46566;52.700;6.192;2022-07-23T09:28:16;26.20;72.70
60717;DHT22;46566;52.700;6.192;2022-07-23T09:30:42;25.50;67.90
60717;DHT22;46566;52.700;6.192;2022-07-23T09:33:15;24.90;72.60
60717;DHT22;46566;52.700;6.192;2022-07-23T09:38:50;24.50;82.40
60717;DHT22;46566;52.700;6.192;2022-07-23T09:41:42;25.20;74.10
60717;DHT22;46566;52.700;6.192;2022-07-23T09:44:10;25.80;72.40
60717;DHT22;46566;52.700;6.192;2022-07-23T09:46:37;26.10;70.20
60717;DHT22;46566;52.700;6.192;2022-07-23T09:49:27;26.20;59.90
60717;DHT22;46566;52.700;6.192;2022-07-23T09:51:56;25.70;65.80
60717;DHT22;46566;52.700;6.192;2022-07-23T09:56:49;25.30;70.70
60717;DHT22;46566;52.700;6.192;2022-07-23T10:02:14;25.60;68.00
60717;DHT22;46566;52.700;6.192;2022-07-23T10:05:30;25.90;69.90
60717;DHT22;46566;52.700;6.192;2022-07-23T10:11:11;25.50;82.90
60717;DHT22;46566;52.700;6.192;2022-07-23T10:17:03;25.70;69.00
60717;DHT22;46566;52.700;6.192;2022-07-23T10:19:31;26.00;67.80
60717;DHT22;46566;52.700;6.192;2022-07-23T10:22:23;26.20;68.80
60717;DHT22;46566;52.700;6.192;2022-07-23T10:36:22;25.10;71.30
60717;DHT22;46566;52.700;6.192;2022-07-23T10:41:39;24.90;76.50
60717;DHT22;46566;52.700;6.192;2022-07-23T10:44:13;25.00;74.00
60717;DHT22;46566;52.700;6.192;2022-07-23T10:47:04;25.20;70.80
60717;DHT22;46566;52.700;6.192;2022-07-23T10:49:39;25.10;70.00
60717;DHT22;46566;52.700;6.192;2022-07-23T11:01:00;25.40;67.30
60717;DHT22;46566;52.700;6.192;2022-07-23T11:03:57;25.60;69.70
60717;DHT22;46566;52.700;6.192;2022-07-23T11:06:30;25.60;68.60
60717;DHT22;46566;52.700;6.192;2022-07-23T11:15:07;25.70;65.10
60717;DHT22;46566;52.700;6.192;2022-07-23T11:17:36;25.80;67.40
60717;DHT22;46566;52.700;6.192;2022-07-23T11:22:56;25.70;69.00
60717;DHT22;46566;52.700;6.192;2022-07-23T11:27:53;26.20;72.20
60717;DHT22;46566;52.700;6.192;2022-07-23T11:35:45;26.20;62.80
60717;DHT22;46566;52.700;6.192;2022-07-23T11:43:48;26.50;61.80
60717;DHT22;46566;52.700;6.192;2022-07-23T11:46:15;26.30;65.60
60717;DHT22;46566;52.700;6.192;2022-07-23T11:54:58;26.10;67.70
60717;DHT22;46566;52.700;6.192;2022-07-23T11:57:26;26.10;63.50
60717;DHT22;46566;52.700;6.192;2022-07-23T12:00:18;26.20;65.50
60717;DHT22;46566;52.700;6.192;2022-07-23T12:02:47;26.40;65.40
60717;DHT22;46566;52.700;6.192;2022-07-23T12:05:15;26.50;69.20
60717;DHT22;46566;52.700;6.192;2022-07-23T12:08:00;26.60;65.50
60717;DHT22;46566;52.700;6.192;2022-07-23T12:10:35;26.70;61.60
60717;DHT22;46566;52.700;6.192;2022-07-23T12:13:07;26.80;62.90
60717;DHT22;46566;52.700;6.192;2022-07-23T12:16:00;26.70;61.80
60717;DHT22;46566;52.700;6.192;2022-07-23T12:18:27;26.60;71.40
60717;DHT22;46566;52.700;6.192;2022-07-23T12:20:55;26.60;67.50
60717;DHT22;46566;52.700;6.192;2022-07-23T12:23:24;26.70;66.20
60717;DHT22;46566;52.700;6.192;2022-07-23T12:26:15;26.70;64.90
60717;DHT22;46566;52.700;6.192;2022-07-23T12:28:41;26.60;61.90
60717;DHT22;46566;52.700;6.192;2022-07-23T12:31:08;26.60;62.70
60717;DHT22;46566;52.700;6.192;2022-07-23T12:33:54;26.60;66.00
60717;DHT22;46566;52.700;6.192;2022-07-23T12:36:19;26.70;62.70
60717;DHT22;46566;52.700;6.192;2022-07-23T12:38:49;27.00;67.10
60717;DHT22;46566;52.700;6.192;2022-07-23T12:44:31;27.30;63.70
60717;DHT22;46566;52.700;6.192;2022-07-23T12:46:57;27.40;62.10
60717;DHT22;46566;52.700;6.192;2022-07-23T12:52:28;27.10;64.80
60717;DHT22;46566;52.700;6.192;2022-07-23T12:54:54;26.70;71.00
60717;DHT22;46566;52.700;6.192;2022-07-23T12:57:45;26.50;65.30
60717;DHT22;46566;52.700;6.192;2022-07-23T13:00:12;26.40;67.60
60717;DHT22;46566;52.700;6.192;2022-07-23T13:02:47;26.40;66.80
60717;DHT22;46566;52.700;6.192;2022-07-23T13:05:38;26.50;66.00
60717;DHT22;46566;52.700;6.192;2022-07-23T13:08:03;26.70;70.30
60717;DHT22;46566;52.700;6.192;2022-07-23T13:10:29;26.90;66.10
60717;DHT22;46566;52.700;6.192;2022-07-23T13:12:55;27.00;65.00
60717;DHT22;46566;52.700;6.192;2022-07-23T13:15:46;27.30;64.30
60717;DHT22;46566;52.700;6.192;2022-07-23T13:18:12;27.60;66.10
60717;DHT22;46566;52.700;6.192;2022-07-23T13:20:38;27.80;66.00
60717;DHT22;46566;52.700;6.192;2022-07-23T13:23:06;27.90;62.70
60717;DHT22;46566;52.700;6.192;2022-07-23T13:25:44;27.90;61.40
60717;DHT22;46566;52.700;6.192;2022-07-23T13:28:11;27.90;63.20
60717;DHT22;46566;52.700;6.192;2022-07-23T13:30:37;27.80;64.90
60717;DHT22;46566;52.700;6.192;2022-07-23T13:33:04;27.60;67.70
60717;DHT22;46566;52.700;6.192;2022-07-23T13:35:30;27.60;62.50
60717;DHT22;46566;52.700;6.192;2022-07-23T13:38:22;27.80;62.70
60717;DHT22;46566;52.700;6.192;2022-07-23T13:40:50;27.90;62.00
60717;DHT22;46566;52.700;6.192;2022-07-23T13:43:19;27.90;64.40
60717;DHT22;46566;52.700;6.192;2022-07-23T13:46:10;27.90;60.60
60717;DHT22;46566;52.700;6.192;2022-07-23T13:48:35;28.00;61.20
60717;DHT22;46566;52.700;6.192;2022-07-23T13:51:01;28.00;60.00
60717;DHT22;46566;52.700;6.192;2022-07-23T13:53:27;28.00;57.60
60717;DHT22;46566;52.700;6.192;2022-07-23T13:58:56;28.20;63.90
60717;DHT22;46566;52.700;6.192;2022-07-23T14:01:22;28.40;58.20
60717;DHT22;46566;52.700;6.192;2022-07-23T14:04:03;28.30;58.80
60717;DHT22;46566;52.700;6.192;2022-07-23T14:06:28;28.20;59.30
60717;DHT22;46566;52.700;6.192;2022-07-23T14:08:54;28.10;59.60
60717;DHT22;46566;52.700;6.192;2022-07-23T14:11:20;28.00;59.10
60717;DHT22;46566;52.700;6.192;2022-07-23T14:13:46;27.90;60.10
60717;DHT22;46566;52.700;6.192;2022-07-23T14:16:37;27.90;61.20
60717;DHT22;46566;52.700;6.192;2022-07-23T14:19:02;28.00;59.00
60717;DHT22;46566;52.700;6.192;2022-07-23T14:21:28;27.80;61.60
60717;DHT22;46566;52.700;6.192;2022-07-23T14:23:54;27.80;61.10
60717;DHT22;46566;52.700;6.192;2022-07-23T14:26:32;27.80;62.90
60717;DHT22;46566;52.700;6.192;2022-07-23T14:32:27;27.80;65.80
60717;DHT22;46566;52.700;6.192;2022-07-23T14:34:53;27.90;63.10
60717;DHT22;46566;52.700;6.192;2022-07-23T14:37:19;28.00;61.50
60717;DHT22;46566;52.700;6.192;2022-07-23T14:40:04;27.90;59.00
60717;DHT22;46566;52.700;6.192;2022-07-23T14:42:30;27.70;60.30
60717;DHT22;46566;52.700;6.192;2022-07-23T14:44:56;27.60;63.60
60717;DHT22;46566;52.700;6.192;2022-07-23T14:47:22;27.60;63.80
60717;DHT22;46566;52.700;6.192;2022-07-23T14:49:48;27.60;61.40
60717;DHT22;46566;52.700;6.192;2022-07-23T14:52:39;27.70;62.70
60717;DHT22;46566;52.700;6.192;2022-07-23T14:55:05;27.80;62.40
60717;DHT22;46566;52.700;6.192;2022-07-23T14:57:31;27.90;61.30
60717;DHT22;46566;52.700;6.192;2022-07-23T14:59:57;27.80;62.80
60717;DHT22;46566;52.700;6.192;2022-07-23T15:05:28;27.90;61.60
60717;DHT22;46566;52.700;6.192;2022-07-23T15:10:59;27.50;60.20
60717;DHT22;46566;52.700;6.192;2022-07-23T15:13:25;27.20;61.10
60717;DHT22;46566;52.700;6.192;2022-07-23T15:16:10;27.10;62.50
60717;DHT22;46566;52.700;6.192;2022-07-23T15:18:39;26.90;61.90
60717;DHT22;46566;52.700;6.192;2022-07-23T15:21:05;26.70;64.10
60717;DHT22;46566;52.700;6.192;2022-07-23T15:23:31;26.60;65.20
60717;DHT22;46566;52.700;6.192;2022-07-23T15:28:44;26.50;64.40
60717;DHT22;46566;52.700;6.192;2022-07-23T15:31:09;26.60;68.60
60717;DHT22;46566;52.700;6.192;2022-07-23T15:33:35;26.60;66.30
60717;DHT22;46566;52.700;6.192;2022-07-23T15:36:01;26.60;65.10
60717;DHT22;46566;52.700;6.192;2022-07-23T15:44:21;26.50;66.40
60717;DHT22;46566;52.700;6.192;2022-07-23T15:50:08;26.20;65.80
60717;DHT22;46566;52.700;6.192;2022-07-23T15:55:58;26.00;68.70
60717;DHT22;46566;52.700;6.192;2022-07-23T15:58:24;26.00;66.40
60717;DHT22;46566;52.700;6.192;2022-07-23T16:00:50;26.00;69.40
60717;DHT22;46566;52.700;6.192;2022-07-23T16:03:41;26.00;68.60
60717;DHT22;46566;52.700;6.192;2022-07-23T16:06:07;25.80;68.00
60717;DHT22;46566;52.700;6.192;2022-07-23T16:08:33;25.70;66.50
60717;DHT22;46566;52.700;6.192;2022-07-23T16:10:59;25.60;69.90
60717;DHT22;46566;52.700;6.192;2022-07-23T16:13:49;25.60;69.90
60717;DHT22;46566;52.700;6.192;2022-07-23T16:16:15;25.60;70.00
60717;DHT22;46566;52.700;6.192;2022-07-23T16:18:41;25.60;69.20
60717;DHT22;46566;52.700;6.192;2022-07-23T16:21:07;25.50;70.60
60717;DHT22;46566;52.700;6.192;2022-07-23T16:23:58;25.50;71.40
60717;DHT22;46566;52.700;6.192;2022-07-23T16:29:20;25.40;72.40
60717;DHT22;46566;52.700;6.192;2022-07-23T16:31:47;25.40;72.40
60717;DHT22;46566;52.700;6.192;2022-07-23T16:34:13;25.30;73.80
60717;DHT22;46566;52.700;6.192;2022-07-23T16:36:39;25.20;71.70
60717;DHT22;46566;52.700;6.192;2022-07-23T16:39:06;25.20;71.60
60717;DHT22;46566;52.700;6.192;2022-07-23T16:41:57;25.20;70.90
60717;DHT22;46566;52.700;6.192;2022-07-23T16:44:23;25.10;73.40
60717;DHT22;46566;52.700;6.192;2022-07-23T16:46:49;25.10;75.00
60717;DHT22;46566;52.700;6.192;2022-07-23T16:49:15;25.10;71.90
60717;DHT22;46566;52.700;6.192;2022-07-23T16:54:29;25.10;73.10
60717;DHT22;46566;52.700;6.192;2022-07-23T16:56:54;25.10;72.90
60717;DHT22;46566;52.700;6.192;2022-07-23T16:59:20;25.10;77.20
60717;DHT22;46566;52.700;6.192;2022-07-23T17:02:01;25.00;72.70
60717;DHT22;46566;52.700;6.192;2022-07-23T17:04:27;25.00;72.80
60717;DHT22;46566;52.700;6.192;2022-07-23T17:09:52;24.90;71.50
60717;DHT22;46566;52.700;6.192;2022-07-23T17:12:18;24.90;73.20
60717;DHT22;46566;52.700;6.192;2022-07-23T17:14:44;24.90;73.10
60717;DHT22;46566;52.700;6.192;2022-07-23T17:17:10;24.80;71.20
60717;DHT22;46566;52.700;6.192;2022-07-23T17:19:38;24.80;71.00
60717;DHT22;46566;52.700;6.192;2022-07-23T17:22:29;24.70;70.90
60717;DHT22;46566;52.700;6.192;2022-07-23T17:24:55;24.70;73.20
60717;DHT22;46566;52.700;6.192;2022-07-23T17:27:21;24.70;73.60
60717;DHT22;46566;52.700;6.192;2022-07-23T17:29:46;24.70;73.60
60717;DHT22;46566;52.700;6.192;2022-07-23T17:32:37;24.70;75.30
60717;DHT22;46566;52.700;6.192;2022-07-23T17:35:04;24.80;77.30
60717;DHT22;46566;52.700;6.192;2022-07-23T17:37:30;24.90;74.80
60717;DHT22;46566;52.700;6.192;2022-07-23T17:39:56;24.90;76.10